Time;durP1;ratioP1;P1;durP2;ratioP2;P2;SDS_P1;SDS_P2;PMS_P1;PMS_P2;Temp;Humidity;BMP_temperature;BMP_pressure;BME280_temperature;BME280_humidity;BME280_pressure;Samples;Min_cycle;Max_cycle;Signal;HPM_P1;HPM_P2
2021/01/21 00:01:38;;;;;;;3.30;2.47;;;7.90;99.90;;;;;;5074578;28;20587;-86
2021/01/21 00:04:04;;;;;;;4.33;2.80;;;7.80;99.90;;;;;;5074608;28;20210;-86
2021/01/21 00:06:35;;;;;;;3.10;1.87;;;7.80;99.90;;;;;;5075893;28;20171;-86
2021/01/21 00:09:03;;;;;;;2.43;2.17;;;7.80;99.90;;;;;;5074538;28;20175;-86
2021/01/21 00:11:28;;;;;;;4.80;2.43;;;7.80;99.90;;;;;;5075715;28;20526;-86
2021/01/21 00:13:54;;;;;;;5.30;2.70;;;7.80;99.90;;;;;;5074435;28;20224;-86
2021/01/21 00:16:24;;;;;;;7.30;2.90;;;7.70;99.90;;;;;;5074369;28;20214;-86
2021/01/21 00:18:52;;;;;;;3.40;2.40;;;7.70;99.90;;;;;;5075460;28;20706;-86
2021/01/21 00:21:23;;;;;;;5.97;2.47;;;7.80;99.90;;;;;;5074290;28;20186;-86
2021/01/21 00:23:49;;;;;;;3.53;2.50;;;7.70;99.90;;;;;;5074500;28;20206;-86
2021/01/21 00:26:21;;;;;;;3.33;2.73;;;7.70;99.90;;;;;;5074540;28;20666;-86
2021/01/21 00:28:47;;;;;;;3.50;2.40;;;7.80;99.90;;;;;;5074842;28;20194;-86
2021/01/21 00:31:21;;;;;;;4.93;2.60;;;7.80;99.90;;;;;;5075382;28;20175;-86
2021/01/21 00:33:52;;;;;;;5.90;2.80;;;7.90;99.90;;;;;;5075288;28;20172;-87
2021/01/21 00:36:23;;;;;;;6.53;2.23;;;8.00;99.90;;;;;;5073999;28;20176;-86
2021/01/21 00:38:57;;;;;;;8.73;2.53;;;8.00;99.90;;;;;;5073872;28;20209;-87
2021/01/21 00:41:27;;;;;;;7.23;3.67;;;8.00;99.90;;;;;;5073991;28;20651;-87
2021/01/21 00:43:57;;;;;;;2.40;2.20;;;8.00;99.90;;;;;;5073746;28;20720;-87
2021/01/21 00:46:25;;;;;;;7.90;2.30;;;8.00;99.90;;;;;;5073794;28;20179;-87
2021/01/21 00:49:01;;;;;;;3.43;2.37;;;8.00;99.90;;;;;;5073766;28;20191;-87
2021/01/21 00:51:36;;;;;;;4.50;2.93;;;7.90;99.90;;;;;;5074901;28;20284;-87
2021/01/21 00:54:08;;;;;;;3.63;2.50;;;7.90;99.90;;;;;;5073671;28;20178;-86
2021/01/21 00:56:41;;;;;;;3.47;2.40;;;8.00;99.90;;;;;;5074881;28;20175;-86
2021/01/21 00:59:13;;;;;;;3.03;2.30;;;8.00;99.90;;;;;;5074816;28;20265;-86
2021/01/21 01:01:43;;;;;;;2.93;2.13;;;8.00;99.90;;;;;;5074737;28;20213;-86
2021/01/21 01:04:15;;;;;;;5.43;2.10;;;8.00;99.90;;;;;;5074624;28;20289;-86
2021/01/21 01:06:50;;;;;;;5.67;3.13;;;8.10;99.90;;;;;;5073266;28;20171;-86
2021/01/21 01:09:21;;;;;;;3.63;2.07;;;8.10;99.90;;;;;;5073266;28;20174;-86
2021/01/21 01:11:48;;;;;;;3.50;2.30;;;8.00;99.90;;;;;;5074523;28;20685;-86
2021/01/21 01:14:21;;;;;;;4.47;2.50;;;8.10;99.90;;;;;;5073170;28;20193;-87
2021/01/21 01:16:50;;;;;;;2.93;2.20;;;8.10;99.90;;;;;;5074376;28;20258;-87
2021/01/21 01:19:23;;;;;;;5.07;3.10;;;8.00;99.90;;;;;;5074338;28;20185;-87
2021/01/21 01:21:49;;;;;;;5.30;2.77;;;8.10;99.90;;;;;;5073011;28;20179;-86
2021/01/21 01:24:16;;;;;;;4.13;2.43;;;8.10;99.90;;;;;;5074205;28;20203;-86
2021/01/21 01:26:45;;;;;;;3.30;2.20;;;8.10;99.90;;;;;;5074221;28;20156;-86
2021/01/21 01:29:11;;;;;;;2.57;2.10;;;8.10;99.90;;;;;;5074104;28;20168;-86
2021/01/21 01:31:40;;;;;;;4.70;2.37;;;8.10;99.90;;;;;;5074736;28;20174;-86
2021/01/21 01:34:19;;;;;;;4.83;2.37;;;8.10;99.90;;;;;;5072805;28;20220;-86
2021/01/21 01:36:49;;;;;;;6.40;2.73;;;8.00;99.90;;;;;;5074167;28;20163;-86
2021/01/21 01:39:24;;;;;;;4.37;2.50;;;8.10;99.90;;;;;;5072966;28;20178;-86
2021/01/21 01:41:58;;;;;;;3.90;2.87;;;8.20;99.90;;;;;;5072785;28;20164;-86
2021/01/21 01:44:27;;;;;;;2.80;1.97;;;8.10;99.90;;;;;;5073902;28;20159;-86
2021/01/21 01:47:00;;;;;;;3.53;2.00;;;8.20;99.90;;;;;;5073762;28;20187;-86
2021/01/21 01:49:31;;;;;;;4.60;1.97;;;8.20;99.90;;;;;;5072612;28;20247;-86
2021/01/21 01:52:07;;;;;;;5.83;2.43;;;8.20;99.90;;;;;;5072726;28;20657;-86
2021/01/21 01:54:41;;;;;;;2.50;2.03;;;8.10;99.90;;;;;;5073755;28;20167;-86
2021/01/21 01:57:11;;;;;;;2.80;2.17;;;8.30;99.90;;;;;;5073718;28;20612;-86
2021/01/21 01:59:48;;;;;;;2.87;2.00;;;8.20;99.90;;;;;;5073201;28;20565;-86
2021/01/21 02:02:21;;;;;;;3.87;2.33;;;8.20;99.90;;;;;;5072473;28;20544;-86
2021/01/21 02:04:53;;;;;;;2.83;2.13;;;8.10;99.90;;;;;;5072625;28;20314;-86
2021/01/21 02:07:23;;;;;;;4.07;2.70;;;8.20;99.90;;;;;;5073384;28;20286;-85
2021/01/21 02:09:53;;;;;;;6.93;2.23;;;8.10;99.90;;;;;;5073484;28;20297;-86
2021/01/21 02:12:35;;;;;;;4.23;2.50;;;8.20;99.90;;;;;;5072199;28;20262;-86
2021/01/21 02:15:31;;;;;;;5.40;2.60;;;8.20;99.90;;;;;;5072168;28;20217;-86
2021/01/21 02:18:21;;;;;;;3.77;2.20;;;8.20;99.90;;;;;;5071991;28;20187;-86
2021/01/21 02:21:31;;;;;;;3.87;2.10;;;8.30;99.90;;;;;;5073333;28;20163;-85
2021/01/21 02:24:28;;;;;;;6.17;2.43;;;8.20;99.90;;;;;;5071984;28;20245;-86
2021/01/21 02:27:09;;;;;;;2.70;1.97;;;8.20;99.90;;;;;;5071891;28;20187;-86
2021/01/21 02:29:47;;;;;;;2.90;1.83;;;8.20;99.90;;;;;;5073282;28;20527;-86
2021/01/21 02:32:50;;;;;;;6.47;2.67;;;8.20;99.90;;;;;;5073489;28;20166;-86
2021/01/21 02:35:23;;;;;;;2.80;2.20;;;8.30;99.90;;;;;;5071985;28;20175;-86
2021/01/21 02:37:59;;;;;;;2.60;1.83;;;8.30;99.90;;;;;;5073053;28;20237;-86
2021/01/21 02:40:31;;;;;;;4.50;2.23;;;8.40;99.90;;;;;;5071808;28;20178;-86
2021/01/21 02:43:00;;;;;;;4.60;2.30;;;8.40;99.90;;;;;;5072944;28;20246;-85
2021/01/21 02:45:38;;;;;;;2.97;2.07;;;8.30;99.90;;;;;;5073289;28;20171;-86
2021/01/21 02:48:11;;;;;;;3.73;1.80;;;8.30;99.90;;;;;;5073033;28;20187;-86
2021/01/21 02:50:45;;;;;;;7.57;2.47;;;8.40;99.90;;;;;;5073125;28;20225;-86
2021/01/21 02:53:15;;;;;;;4.60;2.30;;;8.40;99.90;;;;;;5075925;28;20175;-86
2021/01/21 02:55:54;;;;;;;4.13;2.20;;;8.50;99.90;;;;;;5075872;28;20175;-86
2021/01/21 02:58:33;;;;;;;3.47;2.13;;;8.50;99.90;;;;;;5075725;28;20297;-85
2021/01/21 03:01:04;;;;;;;3.43;1.80;;;8.60;99.90;;;;;;5075866;28;20202;-86
2021/01/21 03:03:34;;;;;;;4.90;2.27;;;8.70;99.90;;;;;;5075599;28;20199;-86
2021/01/21 03:06:02;;;;;;;3.87;2.00;;;8.60;99.90;;;;;;5076485;28;20634;-86
2021/01/21 03:08:34;;;;;;;4.17;2.40;;;8.60;99.90;;;;;;5075563;28;20272;-86
2021/01/21 03:11:15;;;;;;;4.23;1.70;;;8.60;99.90;;;;;;5076862;28;20172;-86
2021/01/21 03:13:46;;;;;;;4.17;2.07;;;8.70;99.90;;;;;;5076779;28;20213;-86
2021/01/21 03:16:21;;;;;;;3.87;2.10;;;8.70;99.90;;;;;;5077072;28;20159;-86
2021/01/21 03:18:51;;;;;;;4.03;2.00;;;8.70;99.90;;;;;;5076928;28;20245;-86
2021/01/21 03:21:26;;;;;;;5.23;2.10;;;8.60;99.90;;;;;;5076607;28;20171;-86
2021/01/21 03:23:51;;;;;;;9.07;1.87;;;8.60;99.90;;;;;;5075255;28;20274;-86
2021/01/21 03:26:23;;;;;;;3.63;2.00;;;8.60;99.90;;;;;;5076521;28;20199;-86
2021/01/21 03:28:51;;;;;;;2.63;2.00;;;8.70;99.90;;;;;;5075093;28;20273;-86
2021/01/21 03:31:21;;;;;;;4.37;2.10;;;8.70;99.90;;;;;;5075141;28;20171;-86
2021/01/21 03:33:51;;;;;;;4.37;2.30;;;8.70;99.90;;;;;;5075047;28;20183;-86
2021/01/21 03:36:26;;;;;;;6.20;2.27;;;8.70;99.90;;;;;;5075046;28;20222;-86
2021/01/21 03:38:56;;;;;;;6.70;2.57;;;8.70;99.90;;;;;;5076216;28;20218;-86
2021/01/21 03:41:29;;;;;;;6.20;2.50;;;8.80;99.90;;;;;;5076165;28;20221;-86
2021/01/21 03:43:55;;;;;;;3.10;2.17;;;8.80;99.90;;;;;;5074841;28;20195;-86
2021/01/21 03:46:29;;;;;;;6.30;2.00;;;8.90;99.90;;;;;;5076081;28;20178;-86
2021/01/21 03:49:00;;;;;;;4.00;2.23;;;9.00;99.90;;;;;;5074717;28;20198;-86
2021/01/21 03:51:27;;;;;;;8.83;2.57;;;8.90;99.90;;;;;;5074739;28;20596;-86
2021/01/21 03:54:00;;;;;;;3.47;2.00;;;8.80;99.90;;;;;;5075924;28;20186;-86
2021/01/21 03:56:34;;;;;;;3.70;2.20;;;8.70;99.90;;;;;;5074751;28;20168;-86
2021/01/21 03:59:09;;;;;;;4.23;2.13;;;8.60;99.90;;;;;;5075945;28;20187;-86
2021/01/21 04:01:41;;;;;;;4.40;2.93;;;8.70;99.90;;;;;;5074552;28;20171;-86
2021/01/21 04:04:11;;;;;;;4.60;2.30;;;8.70;99.90;;;;;;5076416;28;20540;-86
2021/01/21 04:06:48;;;;;;;2.33;1.73;;;8.70;99.90;;;;;;5074623;28;20175;-86
2021/01/21 04:09:19;;;;;;;5.43;1.67;;;8.80;99.90;;;;;;5075777;28;20171;-86
2021/01/21 04:11:52;;;;;;;5.03;1.90;;;8.70;99.90;;;;;;5074434;28;20199;-86
2021/01/21 04:14:27;;;;;;;7.13;1.60;;;8.70;99.90;;;;;;5075623;28;20171;-86
2021/01/21 04:16:53;;;;;;;3.87;2.43;;;9.10;99.90;;;;;;5074669;28;20270;-85
2021/01/21 04:19:25;;;;;;;3.70;1.90;;;9.10;99.90;;;;;;5075750;28;20250;-86
2021/01/21 04:21:59;;;;;;;4.80;2.57;;;9.10;99.90;;;;;;5074291;28;20178;-86
2021/01/21 04:24:31;;;;;;;2.23;1.83;;;8.90;99.90;;;;;;5074924;28;20203;-86
2021/01/21 04:27:04;;;;;;;3.73;1.90;;;8.90;99.90;;;;;;5075326;28;20633;-85
2021/01/21 04:29:41;;;;;;;2.50;1.80;;;9.00;99.90;;;;;;5075731;28;20160;-86
2021/01/21 04:32:15;;;;;;;3.37;2.33;;;9.00;99.90;;;;;;5075311;28;20179;-86
2021/01/21 04:34:46;;;;;;;6.77;2.30;;;8.90;99.90;;;;;;5075596;28;20187;-86
2021/01/21 04:37:19;;;;;;;3.07;1.97;;;9.10;99.90;;;;;;5073936;28;20745;-85
2021/01/21 04:39:45;;;;;;;4.80;2.57;;;9.00;99.90;;;;;;5074784;28;20171;-86
2021/01/21 04:42:21;;;;;;;7.07;2.63;;;8.90;99.90;;;;;;5075408;28;20203;-86
2021/01/21 04:44:53;;;;;;;2.27;1.67;;;8.90;99.90;;;;;;5074664;28;20522;-86
2021/01/21 04:47:29;;;;;;;4.23;2.13;;;8.90;99.90;;;;;;5075252;28;20179;-86
2021/01/21 04:49:56;;;;;;;1.50;1.40;;;8.90;99.90;;;;;;5073748;28;20171;-86
2021/01/21 04:52:28;;;;;;;2.33;2.13;;;8.70;99.90;;;;;;5073737;28;20179;-86
2021/01/21 04:55:08;;;;;;;5.80;1.97;;;8.90;99.90;;;;;;5074890;28;20168;-86
2021/01/21 04:57:55;;;;;;;3.63;2.43;;;8.80;99.90;;;;;;5074903;28;20211;-85
2021/01/21 05:00:25;;;;;;;7.97;2.70;;;8.90;99.90;;;;;;5073498;28;20252;-86
2021/01/21 05:02:53;;;;;;;3.30;2.00;;;8.80;99.90;;;;;;5073374;28;20618;-86
2021/01/21 05:05:28;;;;;;;2.67;1.80;;;8.70;99.90;;;;;;5074684;28;20203;-86
2021/01/21 05:08:06;;;;;;;6.33;2.53;;;8.80;99.90;;;;;;5073294;28;20186;-86
2021/01/21 05:10:36;;;;;;;3.43;2.10;;;8.80;99.90;;;;;;5074562;28;20635;-86
2021/01/21 05:13:10;;;;;;;4.53;1.70;;;8.80;99.90;;;;;;5073111;28;20240;-86
2021/01/21 05:15:41;;;;;;;2.27;1.90;;;8.70;99.90;;;;;;5074471;28;20203;-86
2021/01/21 05:18:17;;;;;;;3.33;1.80;;;8.70;99.90;;;;;;5074361;28;20194;-86
2021/01/21 05:20:48;;;;;;;3.60;2.00;;;8.80;99.90;;;;;;5074361;28;20606;-86
2021/01/21 05:23:23;;;;;;;2.23;1.63;;;8.70;99.90;;;;;;5073000;28;20679;-86
2021/01/21 05:25:51;;;;;;;2.03;1.87;;;8.80;99.90;;;;;;5073059;28;20174;-86
2021/01/21 05:28:25;;;;;;;2.60;2.13;;;8.80;99.90;;;;;;5074097;28;20211;-86
2021/01/21 05:30:57;;;;;;;3.00;2.23;;;8.80;99.90;;;;;;5072951;28;20171;-86
2021/01/21 05:33:31;;;;;;;2.13;1.90;;;8.80;99.90;;;;;;5074145;28;20651;-86
2021/01/21 05:36:03;;;;;;;2.10;1.77;;;8.70;99.90;;;;;;5074004;28;20647;-85
2021/01/21 05:38:37;;;;;;;3.57;2.20;;;8.80;99.90;;;;;;5074031;28;20191;-86
2021/01/21 05:41:10;;;;;;;3.47;2.20;;;8.80;99.90;;;;;;5072782;28;20205;-86
2021/01/21 05:43:48;;;;;;;2.67;2.30;;;8.80;99.90;;;;;;5073986;28;20191;-86
2021/01/21 05:46:20;;;;;;;1.87;1.70;;;8.90;99.90;;;;;;5072585;28;20199;-86
2021/01/21 05:48:53;;;;;;;3.40;2.03;;;8.90;99.90;;;;;;5072428;28;20237;-86
2021/01/21 05:51:30;;;;;;;2.73;1.70;;;8.90;99.90;;;;;;5072759;28;20201;-86
2021/01/21 05:54:05;;;;;;;2.47;1.87;;;8.90;99.90;;;;;;5072974;28;20171;-86
2021/01/21 05:56:37;;;;;;;4.90;2.53;;;8.90;99.90;;;;;;5073714;28;20175;-86
2021/01/21 05:59:10;;;;;;;3.23;2.53;;;8.90;99.90;;;;;;5073635;28;20183;-86
2021/01/21 06:01:46;;;;;;;4.43;1.90;;;8.90;99.90;;;;;;5072622;28;20198;-86
2021/01/21 06:04:17;;;;;;;5.27;2.13;;;8.80;99.90;;;;;;5072709;28;20199;-86
2021/01/21 06:06:45;;;;;;;2.37;1.97;;;8.80;99.90;;;;;;5072315;28;20193;-85
2021/01/21 06:09:26;;;;;;;6.50;2.00;;;8.90;99.90;;;;;;5073378;28;20258;-86
2021/01/21 06:11:52;;;;;;;2.50;1.70;;;9.00;99.90;;;;;;5073530;28;20159;-86
2021/01/21 06:14:30;;;;;;;3.23;1.70;;;8.90;99.90;;;;;;5073442;28;20171;-86
2021/01/21 06:17:04;;;;;;;1.90;1.70;;;9.10;99.90;;;;;;5073603;28;20195;-86
2021/01/21 06:19:34;;;;;;;6.30;2.67;;;9.10;99.90;;;;;;5073324;28;20179;-86
2021/01/21 06:22:05;;;;;;;1.87;1.73;;;9.20;99.90;;;;;;5071999;28;20175;-86
2021/01/21 06:24:45;;;;;;;3.40;2.10;;;9.20;99.90;;;;;;5071887;28;20178;-86
2021/01/21 06:27:21;;;;;;;3.13;1.43;;;9.20;99.90;;;;;;5071892;28;20269;-85
2021/01/21 06:29:54;;;;;;;6.33;2.70;;;9.40;99.90;;;;;;5072014;28;20183;-86
2021/01/21 06:32:30;;;;;;;5.23;1.57;;;9.30;99.90;;;;;;5073609;28;20179;-86
2021/01/21 06:35:02;;;;;;;1.67;1.30;;;9.40;99.90;;;;;;5071922;28;20167;-86
2021/01/21 06:37:41;;;;;;;2.17;1.80;;;9.40;99.90;;;;;;5073763;28;20573;-86
2021/01/21 06:40:16;;;;;;;3.07;1.50;;;9.50;99.90;;;;;;5071917;28;20673;-86
2021/01/21 06:42:56;;;;;;;4.73;1.63;;;9.50;99.90;;;;;;5071734;28;20210;-86
2021/01/21 06:45:31;;;;;;;3.73;2.17;;;9.50;99.90;;;;;;5071844;28;20207;-86
2021/01/21 06:48:04;;;;;;;1.30;1.30;;;9.50;99.90;;;;;;5072991;28;20221;-86
2021/01/21 06:50:38;;;;;;;4.80;1.93;;;9.50;99.90;;;;;;5071812;28;20178;-86
2021/01/21 06:53:06;;;;;;;2.07;1.87;;;9.50;99.90;;;;;;5072348;28;20183;-86
2021/01/21 06:55:47;;;;;;;1.50;1.30;;;9.50;99.90;;;;;;5071757;28;20266;-86
2021/01/21 06:58:47;;;;;;;4.00;1.87;;;9.70;99.90;;;;;;5071800;28;20215;-86
2021/01/21 07:01:37;;;;;;;4.87;2.73;;;9.60;99.90;;;;;;5071786;28;20658;-86
2021/01/21 07:04:18;;;;;;;4.77;1.70;;;9.60;99.90;;;;;;5072815;28;20245;-86
2021/01/21 07:06:52;;;;;;;5.20;1.60;;;9.60;99.90;;;;;;5072830;28;20167;-86
2021/01/21 07:09:28;;;;;;;1.93;1.67;;;9.70;99.90;;;;;;5071714;28;20166;-86
2021/01/21 07:12:08;;;;;;;3.03;1.97;;;9.80;99.90;;;;;;5071657;28;20261;-86
2021/01/21 07:14:41;;;;;;;3.20;1.67;;;9.70;99.90;;;;;;5071611;28;20259;-86
2021/01/21 07:17:14;;;;;;;1.93;1.67;;;9.80;99.90;;;;;;5072662;28;20202;-86
2021/01/21 07:19:50;;;;;;;2.73;1.77;;;9.80;99.90;;;;;;5071457;28;20254;-86
2021/01/21 07:22:26;;;;;;;2.20;1.50;;;10.00;99.90;;;;;;5071629;28;20652;-86
2021/01/21 07:25:02;;;;;;;4.33;1.93;;;9.90;99.90;;;;;;5071571;28;20175;-86
2021/01/21 07:27:34;;;;;;;2.67;1.83;;;9.90;99.90;;;;;;5071490;28;20616;-85
2021/01/21 07:30:20;;;;;;;7.90;2.30;;;9.90;99.90;;;;;;5072931;28;20578;-86
2021/01/21 07:33:12;;;;;;;1.40;0.97;;;9.40;99.90;;;;;;5072272;28;20659;-86
2021/01/21 07:35:41;;;;;;;2.73;1.13;;;7.60;99.90;;;;;;5071609;28;20177;-86
2021/01/21 07:38:35;;;;;;;2.53;0.80;;;7.10;99.90;;;;;;5075988;28;20233;-86
2021/01/21 07:41:01;;;;;;;1.00;0.90;;;6.90;99.90;;;;;;5075681;28;20202;-86
2021/01/21 07:43:56;;;;;;;3.27;1.30;;;6.70;99.90;;;;;;5074998;28;20292;-86
2021/01/21 07:46:31;;;;;;;0.80;0.80;;;6.50;99.90;;;;;;5074919;28;20265;-86
2021/01/21 07:49:26;;;;;;;1.53;0.90;;;6.50;99.90;;;;;;5075045;28;20196;-86
2021/01/21 07:52:10;;;;;;;2.27;1.00;;;6.50;99.90;;;;;;5076237;28;20205;-86
2021/01/21 07:54:51;;;;;;;0.87;0.80;;;6.50;99.90;;;;;;5075055;28;20185;-86
2021/01/21 07:57:27;;;;;;;0.83;0.83;;;6.60;99.90;;;;;;5075087;28;20212;-86
2021/01/21 08:00:00;;;;;;;3.13;0.80;;;6.70;99.90;;;;;;5076193;28;20160;-86
2021/01/21 08:02:46;;;;;;;1.07;0.90;;;6.60;99.90;;;;;;5057921;28;20180;-86
2021/01/21 08:05:18;;;;;;;9.07;1.30;;;6.70;99.90;;;;;;5075815;28;20521;-86
2021/01/21 08:08:00;;;;;;;1.20;0.83;;;6.70;99.90;;;;;;5075811;28;20184;-86
2021/01/21 08:10:31;;;;;;;1.43;0.90;;;6.80;99.90;;;;;;5075666;28;20266;-86
2021/01/21 08:13:08;;;;;;;2.93;0.90;;;6.80;99.90;;;;;;5075713;28;20173;-86
2021/01/21 08:15:40;;;;;;;4.10;1.07;;;6.80;99.90;;;;;;5074557;28;20166;-86
2021/01/21 08:18:14;;;;;;;0.77;0.77;;;6.80;99.90;;;;;;5075740;28;20272;-86
2021/01/21 08:20:47;;;;;;;1.90;0.93;;;6.80;99.90;;;;;;5075548;28;20169;-85
2021/01/21 08:23:19;;;;;;;1.47;1.03;;;6.90;99.90;;;;;;5075493;28;20255;-86
2021/01/21 08:25:56;;;;;;;2.03;1.13;;;6.90;99.90;;;;;;5075817;28;20188;-86
2021/01/21 08:28:26;;;;;;;2.47;0.90;;;6.90;99.90;;;;;;5074162;28;20200;-86
2021/01/21 08:30:54;;;;;;;3.70;0.90;;;6.80;99.90;;;;;;5075714;28;20164;-86
2021/01/21 08:33:24;;;;;;;1.80;1.03;;;6.90;99.90;;;;;;5074081;28;20178;-86
2021/01/21 08:35:51;;;;;;;0.97;0.80;;;7.00;99.90;;;;;;5074296;28;20184;-86
2021/01/21 08:38:26;;;;;;;3.93;1.67;;;6.90;99.90;;;;;;5073839;28;20198;-86
2021/01/21 08:40:58;;;;;;;2.87;1.20;;;7.00;99.90;;;;;;5074289;28;20176;-86
2021/01/21 08:43:25;;;;;;;1.00;1.00;;;7.00;99.90;;;;;;5073792;28;20221;-86
2021/01/21 08:45:54;;;;;;;6.50;1.37;;;7.00;99.90;;;;;;5075376;28;20170;-86
2021/01/21 08:48:28;;;;;;;3.73;1.13;;;7.00;99.90;;;;;;5074417;28;20191;-86
2021/01/21 08:50:59;;;;;;;2.87;1.47;;;7.00;99.90;;;;;;5073636;28;20261;-85
2021/01/21 08:53:30;;;;;;;4.37;1.47;;;6.90;99.90;;;;;;5074983;28;20550;-86
2021/01/21 08:56:12;;;;;;;9.53;1.63;;;6.90;99.90;;;;;;5074515;28;20181;-86
2021/01/21 08:58:41;;;;;;;3.83;1.20;;;7.00;99.90;;;;;;5073426;28;20767;-86
2021/01/21 09:01:11;;;;;;;4.73;1.23;;;6.90;99.90;;;;;;5073597;28;20230;-86
2021/01/21 09:03:51;;;;;;;8.20;1.60;;;6.90;99.90;;;;;;5073619;28;20612;-86
2021/01/21 09:06:23;;;;;;;3.43;1.33;;;6.90;99.90;;;;;;5073436;28;20648;-86
2021/01/21 09:08:56;;;;;;;3.23;1.53;;;7.00;99.90;;;;;;5074553;28;20229;-86
2021/01/21 09:11:41;;;;;;;3.97;1.27;;;6.80;99.90;;;;;;5073384;28;20163;-86
2021/01/21 09:14:15;;;;;;;7.07;2.10;;;6.80;99.90;;;;;;5074423;28;20232;-86
2021/01/21 09:16:58;;;;;;;1.57;1.13;;;6.90;99.90;;;;;;5073245;28;20164;-85
2021/01/21 09:19:37;;;;;;;3.37;1.40;;;7.00;99.90;;;;;;5073501;28;20266;-86
2021/01/21 09:22:18;;;;;;;5.63;1.60;;;7.00;99.90;;;;;;5074328;28;20173;-86
2021/01/21 09:25:07;;;;;;;7.93;2.10;;;7.00;99.90;;;;;;5073561;28;20165;-86
2021/01/21 09:27:50;;;;;;;3.17;1.50;;;7.10;99.90;;;;;;5074223;28;20185;-86
2021/01/21 09:30:25;;;;;;;2.27;1.30;;;7.00;99.90;;;;;;5072941;28;20178;-86
2021/01/21 09:32:56;;;;;;;3.70;1.27;;;7.00;99.90;;;;;;5074359;28;20579;-86
2021/01/21 09:35:30;;;;;;;2.13;1.40;;;7.00;99.90;;;;;;5074326;28;20162;-86
2021/01/21 09:38:08;;;;;;;4.03;2.13;;;7.20;99.90;;;;;;5072786;28;20197;-86
2021/01/21 09:40:37;;;;;;;3.43;1.60;;;7.10;99.90;;;;;;5072944;28;20200;-86
2021/01/21 09:43:07;;;;;;;3.53;1.53;;;7.10;99.90;;;;;;5072529;28;20678;-86
2021/01/21 09:45:42;;;;;;;3.23;1.73;;;7.10;99.90;;;;;;5072668;28;20741;-87
2021/01/21 09:48:08;;;;;;;4.83;1.80;;;7.30;99.90;;;;;;5072646;28;20195;-87
2021/01/21 09:50:41;;;;;;;7.73;2.57;;;7.30;99.90;;;;;;5073922;28;20232;-88
2021/01/21 09:53:12;;;;;;;3.23;1.50;;;7.30;99.90;;;;;;5073901;28;20178;-87
2021/01/21 09:55:47;;;;;;;6.63;1.73;;;7.30;99.90;;;;;;5073767;28;20235;-87
2021/01/21 09:58:21;;;;;;;5.53;1.20;;;7.30;99.90;;;;;;5072546;28;20221;-87
2021/01/21 10:00:53;;;;;;;7.60;1.33;;;7.30;99.90;;;;;;5072867;28;20584;-87
2021/01/21 10:03:25;;;;;;;2.93;2.10;;;7.30;99.90;;;;;;5072267;28;20220;-87
2021/01/21 10:05:59;;;;;;;4.67;1.83;;;7.50;99.90;;;;;;5073551;28;20256;-88
2021/01/21 10:08:31;;;;;;;3.43;1.90;;;7.50;99.90;;;;;;5073652;28;20194;-87
2021/01/21 10:11:08;;;;;;;8.40;1.97;;;7.50;99.90;;;;;;5073735;28;20523;-86
2021/01/21 10:13:40;;;;;;;5.30;1.73;;;7.40;99.90;;;;;;5072229;28;20172;-86
2021/01/21 10:16:11;;;;;;;5.93;1.90;;;7.50;99.90;;;;;;5072146;28;20657;-86
2021/01/21 10:18:37;;;;;;;2.70;1.50;;;7.30;99.90;;;;;;5072794;28;20765;-86
2021/01/21 10:21:09;;;;;;;6.43;2.40;;;7.40;99.90;;;;;;5073803;28;20170;-86
2021/01/21 10:23:41;;;;;;;4.97;2.13;;;7.40;99.90;;;;;;5074027;28;20190;-86
2021/01/21 10:26:18;;;;;;;4.93;1.97;;;7.60;99.90;;;;;;5072035;28;20185;-86
2021/01/21 10:28:51;;;;;;;5.97;2.00;;;7.60;99.90;;;;;;5073095;28;20189;-86
2021/01/21 10:31:26;;;;;;;7.50;2.00;;;7.40;99.90;;;;;;5071920;28;20175;-87
2021/01/21 10:33:57;;;;;;;3.37;1.30;;;7.40;99.90;;;;;;5072233;28;20177;-86
2021/01/21 10:36:31;;;;;;;4.13;1.80;;;7.50;99.90;;;;;;5072433;28;20682;-86
2021/01/21 10:39:01;;;;;;;4.93;1.80;;;7.70;99.90;;;;;;5071829;28;20215;-86
2021/01/21 10:41:37;;;;;;;2.23;1.23;;;7.60;99.90;;;;;;5072093;28;20578;-88
2021/01/21 10:44:11;;;;;;;5.10;1.90;;;7.60;99.90;;;;;;5071911;28;20210;-88
2021/01/21 10:46:39;;;;;;;5.83;1.90;;;7.70;99.90;;;;;;5073156;28;20546;-87
2021/01/21 10:49:16;;;;;;;2.77;1.47;;;7.70;99.90;;;;;;5072138;28;20175;-88
2021/01/21 10:51:42;;;;;;;2.43;1.37;;;7.70;99.90;;;;;;5072045;28;20174;-87
2021/01/21 10:54:08;;;;;;;6.50;1.77;;;7.80;99.90;;;;;;5072106;28;20244;-87
2021/01/21 10:56:37;;;;;;;2.53;1.10;;;7.80;99.90;;;;;;5071723;28;20190;-86
2021/01/21 10:59:11;;;;;;;4.53;1.40;;;7.90;99.90;;;;;;5072196;28;20194;-88
2021/01/21 11:01:48;;;;;;;2.53;1.30;;;7.90;99.90;;;;;;5071762;28;20186;-88
2021/01/21 11:04:21;;;;;;;6.77;2.23;;;8.00;99.90;;;;;;5071978;28;20210;-88
2021/01/21 11:06:53;;;;;;;8.70;2.10;;;8.00;99.90;;;;;;5071643;28;20178;-87
2021/01/21 11:09:37;;;;;;;4.90;1.90;;;8.00;99.90;;;;;;5071743;28;20182;-88
2021/01/21 11:12:15;;;;;;;3.10;1.60;;;8.00;99.90;;;;;;5074924;28;20217;-88
2021/01/21 11:14:53;;;;;;;5.23;1.97;;;8.00;99.90;;;;;;5075798;28;20175;-88
2021/01/21 11:17:27;;;;;;;1.93;1.50;;;8.10;99.90;;;;;;5077094;28;20595;-88
2021/01/21 11:20:00;;;;;;;2.17;1.20;;;8.10;99.90;;;;;;5075547;28;20183;-88
2021/01/21 11:22:37;;;;;;;3.13;1.70;;;8.10;99.90;;;;;;5075379;28;20175;-88
2021/01/21 11:25:17;;;;;;;5.80;1.40;;;8.00;99.90;;;;;;5077270;28;20163;-88
2021/01/21 11:27:51;;;;;;;5.67;1.93;;;8.00;99.90;;;;;;5076581;28;20238;-88
2021/01/21 11:30:22;;;;;;;4.27;1.40;;;8.10;99.90;;;;;;5075256;28;20189;-88
2021/01/21 11:32:53;;;;;;;3.77;1.80;;;8.00;99.90;;;;;;5075198;28;20187;-88
2021/01/21 11:35:31;;;;;;;3.00;1.50;;;8.20;99.90;;;;;;5075205;28;20193;-88
2021/01/21 11:38:04;;;;;;;3.03;1.50;;;8.20;99.90;;;;;;5075267;28;20237;-88
2021/01/21 11:40:35;;;;;;;4.73;1.60;;;8.30;99.90;;;;;;5075415;28;20211;-88
2021/01/21 11:43:11;;;;;;;4.97;1.60;;;8.40;99.90;;;;;;5074950;28;20737;-88
2021/01/21 11:45:47;;;;;;;5.40;1.40;;;8.50;99.90;;;;;;5074978;28;20179;-88
2021/01/21 11:48:18;;;;;;;1.83;1.50;;;8.60;99.90;;;;;;5074872;28;20202;-88
2021/01/21 11:50:51;;;;;;;3.37;1.67;;;8.60;99.90;;;;;;5076024;28;20552;-88
2021/01/21 11:53:26;;;;;;;1.77;1.33;;;8.60;99.90;;;;;;5075567;28;20191;-88
2021/01/21 11:55:59;;;;;;;2.73;1.50;;;8.50;99.90;;;;;;5075092;28;20210;-88
2021/01/21 11:58:31;;;;;;;8.13;1.97;;;8.20;99.90;;;;;;5074793;28;20219;-88
2021/01/21 12:01:07;;;;;;;7.63;1.60;;;8.30;99.90;;;;;;5075038;28;20187;-88
2021/01/21 12:03:41;;;;;;;4.33;1.77;;;8.40;99.90;;;;;;5076119;28;20198;-88
2021/01/21 12:06:14;;;;;;;4.07;1.87;;;8.40;99.90;;;;;;5075377;28;20172;-88
2021/01/21 12:08:49;;;;;;;3.40;1.77;;;8.50;99.90;;;;;;5074668;28;20207;-88
2021/01/21 12:11:21;;;;;;;4.00;2.10;;;8.60;99.90;;;;;;5074686;28;20181;-88
2021/01/21 12:13:56;;;;;;;6.20;1.67;;;8.50;99.90;;;;;;5075838;28;20183;-88
2021/01/21 12:16:27;;;;;;;4.73;2.20;;;8.50;99.90;;;;;;5074730;28;20269;-88
2021/01/21 12:19:04;;;;;;;4.37;1.87;;;8.50;99.90;;;;;;5074817;28;20199;-88
2021/01/21 12:21:38;;;;;;;4.47;1.90;;;8.30;99.90;;;;;;5074699;28;20616;-88
2021/01/21 12:24:11;;;;;;;7.07;1.30;;;8.30;99.90;;;;;;5074899;28;20197;-88
2021/01/21 12:26:43;;;;;;;1.77;1.23;;;8.40;99.90;;;;;;5074305;28;20198;-88
2021/01/21 12:29:18;;;;;;;3.43;2.10;;;8.30;99.90;;;;;;5074220;28;20635;-88
2021/01/21 12:31:51;;;;;;;4.33;1.97;;;8.30;99.90;;;;;;5074572;28;20231;-88
2021/01/21 12:34:25;;;;;;;6.37;1.97;;;8.40;99.90;;;;;;5075403;28;20185;-88
2021/01/21 12:37:00;;;;;;;5.00;2.33;;;8.40;99.90;;;;;;5074403;28;20186;-88
2021/01/21 12:39:34;;;;;;;6.03;2.27;;;8.40;99.90;;;;;;5074331;28;20183;-88
2021/01/21 12:42:06;;;;;;;5.80;1.97;;;8.20;99.90;;;;;;5074307;28;20218;-88
2021/01/21 12:44:39;;;;;;;3.90;2.30;;;8.10;99.90;;;;;;5073865;28;20230;-88
2021/01/21 12:47:11;;;;;;;7.03;2.03;;;8.10;99.90;;;;;;5073779;28;20201;-88
2021/01/21 12:49:45;;;;;;;5.63;1.30;;;8.10;99.90;;;;;;5073842;28;20179;-88
2021/01/21 12:52:17;;;;;;;6.30;1.97;;;8.10;99.90;;;;;;5073896;28;20182;-88
2021/01/21 12:54:51;;;;;;;3.90;1.63;;;8.00;99.90;;;;;;5073759;28;20179;-88
2021/01/21 12:57:25;;;;;;;1.83;1.50;;;8.00;99.90;;;;;;5073528;28;20226;-88
2021/01/21 12:59:58;;;;;;;6.93;2.23;;;8.00;99.90;;;;;;5074198;28;20189;-88
2021/01/21 13:02:31;;;;;;;14.37;2.37;;;8.00;99.90;;;;;;5075072;28;20179;-88
2021/01/21 13:05:05;;;;;;;3.80;1.60;;;8.00;99.90;;;;;;5073469;28;20179;-88
2021/01/21 13:07:41;;;;;;;9.17;1.90;;;8.20;99.90;;;;;;5073389;28;20198;-88
2021/01/21 13:10:17;;;;;;;5.50;1.93;;;8.40;99.90;;;;;;5074804;28;20182;-88
2021/01/21 13:12:51;;;;;;;2.37;1.40;;;8.40;99.90;;;;;;5074715;28;20175;-88
2021/01/21 13:15:23;;;;;;;3.70;1.63;;;8.10;99.90;;;;;;5074223;28;20198;-88
2021/01/21 13:17:55;;;;;;;2.03;1.20;;;8.10;99.90;;;;;;5073481;28;20227;-88
2021/01/21 13:20:29;;;;;;;5.67;1.47;;;8.10;99.90;;;;;;5073268;28;20190;-88
2021/01/21 13:23:00;;;;;;;6.00;2.60;;;8.00;99.90;;;;;;5074351;28;20677;-88
2021/01/21 13:25:38;;;;;;;9.70;2.73;;;7.90;99.90;;;;;;5074393;28;20186;-88
2021/01/21 13:28:11;;;;;;;4.37;1.87;;;7.90;99.90;;;;;;5073091;28;20194;-88
2021/01/21 13:30:46;;;;;;;5.90;1.87;;;7.90;99.90;;;;;;5073552;28;20187;-88
2021/01/21 13:33:25;;;;;;;9.70;2.10;;;7.80;99.90;;;;;;5074529;28;20175;-88